sensor_id;sensor_type;location;lat;lon;timestamp;P1;durP1;ratioP1;P2;durP2;ratioP2
22415;SDS011;12204;50.600;4.608;2023-03-12T00:00:42;3.35;;;1.10;;
22415;SDS011;12204;50.600;4.608;2023-03-12T00:05:46;2.53;;;1.10;;
22415;SDS011;12204;50.600;4.608;2023-03-12T00:10:50;2.70;;;1.20;;
22415;SDS011;12204;50.600;4.608;2023-03-12T00:15:54;3.50;;;1.10;;
22415;SDS011;12204;50.600;4.608;2023-03-12T00:20:57;2.97;;;1.20;;
22415;SDS011;12204;50.600;4.608;2023-03-12T00:26:03;3.40;;;1.20;;
22415;SDS011;12204;50.600;4.608;2023-03-12T00:31:13;3.03;;;1.20;;
22415;SDS011;12204;50.600;4.608;2023-03-12T00:36:21;4.70;;;1.35;;
22415;SDS011;12204;50.600;4.608;2023-03-12T00:41:28;4.10;;;1.33;;
22415;SDS011;12204;50.600;4.608;2023-03-12T00:46:32;3.10;;;1.25;;
22415;SDS011;12204;50.600;4.608;2023-03-12T00:51:35;3.80;;;1.40;;
22415;SDS011;12204;50.600;4.608;2023-03-12T00:56:41;3.05;;;1.30;;
22415;SDS011;12204;50.600;4.608;2023-03-12T01:01:45;3.45;;;1.20;;
22415;SDS011;12204;50.600;4.608;2023-03-12T01:06:49;3.78;;;1.20;;
22415;SDS011;12204;50.600;4.608;2023-03-12T01:11:54;3.28;;;1.23;;
22415;SDS011;12204;50.600;4.608;2023-03-12T01:16:57;3.38;;;1.20;;
22415;SDS011;12204;50.600;4.608;2023-03-12T01:22:01;3.15;;;1.30;;
22415;SDS011;12204;50.600;4.608;2023-03-12T01:27:07;4.30;;;1.40;;
22415;SDS011;12204;50.600;4.608;2023-03-12T01:32:13;5.03;;;1.30;;
22415;SDS011;12204;50.600;4.608;2023-03-12T01:37:17;3.97;;;1.40;;
22415;SDS011;12204;50.600;4.608;2023-03-12T01:42:22;3.75;;;1.40;;
22415;SDS011;12204;50.600;4.608;2023-03-12T01:47:26;4.15;;;1.25;;
22415;SDS011;12204;50.600;4.608;2023-03-12T01:52:36;4.03;;;1.38;;
22415;SDS011;12204;50.600;4.608;2023-03-12T01:57:43;3.25;;;1.30;;
22415;SDS011;12204;50.600;4.608;2023-03-12T02:02:53;4.47;;;1.38;;
22415;SDS011;12204;50.600;4.608;2023-03-12T02:08:06;2.78;;;1.15;;
22415;SDS011;12204;50.600;4.608;2023-03-12T02:13:11;3.33;;;1.30;;
22415;SDS011;12204;50.600;4.608;2023-03-12T02:18:21;2.83;;;1.20;;
22415;SDS011;12204;50.600;4.608;2023-03-12T02:23:26;4.20;;;1.50;;
22415;SDS011;12204;50.600;4.608;2023-03-12T02:28:37;2.58;;;1.15;;
22415;SDS011;12204;50.600;4.608;2023-03-12T02:33:45;3.40;;;1.20;;
22415;SDS011;12204;50.600;4.608;2023-03-12T02:38:49;3.67;;;1.30;;
22415;SDS011;12204;50.600;4.608;2023-03-12T02:43:57;3.75;;;1.40;;
22415;SDS011;12204;50.600;4.608;2023-03-12T02:49:07;4.88;;;1.40;;
22415;SDS011;12204;50.600;4.608;2023-03-12T02:54:13;3.80;;;1.33;;
22415;SDS011;12204;50.600;4.608;2023-03-12T02:59:21;3.15;;;1.30;;
22415;SDS011;12204;50.600;4.608;2023-03-12T03:04:29;3.05;;;1.30;;
22415;SDS011;12204;50.600;4.608;2023-03-12T03:09:35;3.03;;;1.20;;
22415;SDS011;12204;50.600;4.608;2023-03-12T03:14:40;2.75;;;1.20;;
22415;SDS011;12204;50.600;4.608;2023-03-12T03:19:44;3.65;;;1.25;;
22415;SDS011;12204;50.600;4.608;2023-03-12T03:24:48;2.95;;;1.20;;
22415;SDS011;12204;50.600;4.608;2023-03-12T03:29:53;3.70;;;1.40;;
22415;SDS011;12204;50.600;4.608;2023-03-12T03:34:56;2.85;;;1.20;;
22415;SDS011;12204;50.600;4.608;2023-03-12T03:40:01;3.70;;;1.30;;
22415;SDS011;12204;50.600;4.608;2023-03-12T03:45:08;2.58;;;1.20;;
22415;SDS011;12204;50.600;4.608;2023-03-12T03:55:19;3.30;;;1.20;;
22415;SDS011;12204;50.600;4.608;2023-03-12T04:00:24;3.08;;;1.20;;
22415;SDS011;12204;50.600;4.608;2023-03-12T04:05:27;3.67;;;1.13;;
22415;SDS011;12204;50.600;4.608;2023-03-12T04:10:32;3.08;;;1.10;;
22415;SDS011;12204;50.600;4.608;2023-03-12T04:15:37;3.08;;;1.15;;
22415;SDS011;12204;50.600;4.608;2023-03-12T04:20:42;2.85;;;1.13;;
22415;SDS011;12204;50.600;4.608;2023-03-12T04:25:46;3.33;;;1.00;;
22415;SDS011;12204;50.600;4.608;2023-03-12T04:30:54;3.97;;;1.35;;
22415;SDS011;12204;50.600;4.608;2023-03-12T04:36:01;3.13;;;1.10;;
22415;SDS011;12204;50.600;4.608;2023-03-12T04:41:06;4.18;;;1.17;;
22415;SDS011;12204;50.600;4.608;2023-03-12T04:46:19;3.25;;;1.20;;
22415;SDS011;12204;50.600;4.608;2023-03-12T04:51:23;3.17;;;1.10;;
22415;SDS011;12204;50.600;4.608;2023-03-12T04:56:26;2.35;;;1.10;;
22415;SDS011;12204;50.600;4.608;2023-03-12T05:01:32;2.63;;;1.20;;
22415;SDS011;12204;50.600;4.608;2023-03-12T05:06:45;2.83;;;1.05;;
22415;SDS011;12204;50.600;4.608;2023-03-12T05:11:48;4.78;;;1.02;;
22415;SDS011;12204;50.600;4.608;2023-03-12T05:16:56;3.10;;;1.10;;
22415;SDS011;12204;50.600;4.608;2023-03-12T05:21:59;2.38;;;1.08;;
22415;SDS011;12204;50.600;4.608;2023-03-12T05:27:05;2.50;;;1.13;;
22415;SDS011;12204;50.600;4.608;2023-03-12T05:32:11;3.13;;;1.10;;
22415;SDS011;12204;50.600;4.608;2023-03-12T05:37:14;2.78;;;1.10;;
22415;SDS011;12204;50.600;4.608;2023-03-12T05:42:22;3.10;;;1.20;;
22415;SDS011;12204;50.600;4.608;2023-03-12T05:47:29;2.30;;;1.02;;
22415;SDS011;12204;50.600;4.608;2023-03-12T05:52:32;1.98;;;0.98;;
22415;SDS011;12204;50.600;4.608;2023-03-12T05:57:36;2.85;;;1.00;;
22415;SDS011;12204;50.600;4.608;2023-03-12T06:02:41;2.92;;;1.00;;
22415;SDS011;12204;50.600;4.608;2023-03-12T06:07:45;2.42;;;1.00;;
22415;SDS011;12204;50.600;4.608;2023-03-12T06:12:49;2.67;;;1.10;;
22415;SDS011;12204;50.600;4.608;2023-03-12T06:17:54;2.13;;;0.90;;
22415;SDS011;12204;50.600;4.608;2023-03-12T06:22:58;1.73;;;0.90;;
22415;SDS011;12204;50.600;4.608;2023-03-12T06:28:02;1.73;;;0.90;;
22415;SDS011;12204;50.600;4.608;2023-03-12T06:33:07;1.98;;;0.98;;
22415;SDS011;12204;50.600;4.608;2023-03-12T06:38:10;2.15;;;0.90;;
22415;SDS011;12204;50.600;4.608;2023-03-12T06:43:14;2.60;;;1.10;;
22415;SDS011;12204;50.600;4.608;2023-03-12T06:48:19;2.67;;;1.00;;
22415;SDS011;12204;50.600;4.608;2023-03-12T06:53:23;2.67;;;0.95;;
22415;SDS011;12204;50.600;4.608;2023-03-12T06:58:27;2.65;;;1.00;;
22415;SDS011;12204;50.600;4.608;2023-03-12T07:03:32;2.92;;;0.90;;
22415;SDS011;12204;50.600;4.608;2023-03-12T07:08:36;2.00;;;0.88;;
22415;SDS011;12204;50.600;4.608;2023-03-12T07:13:40;3.10;;;1.00;;
22415;SDS011;12204;50.600;4.608;2023-03-12T07:18:45;2.15;;;0.93;;
22415;SDS011;12204;50.600;4.608;2023-03-12T07:23:49;2.00;;;0.88;;
22415;SDS011;12204;50.600;4.608;2023-03-12T07:28:52;1.85;;;0.90;;
22415;SDS011;12204;50.600;4.608;2023-03-12T07:33:57;2.00;;;0.80;;
22415;SDS011;12204;50.600;4.608;2023-03-12T07:39:03;2.38;;;0.90;;
22415;SDS011;12204;50.600;4.608;2023-03-12T07:44:06;2.67;;;1.00;;
22415;SDS011;12204;50.600;4.608;2023-03-12T07:49:12;2.55;;;1.00;;
22415;SDS011;12204;50.600;4.608;2023-03-12T07:54:15;3.20;;;1.02;;
22415;SDS011;12204;50.600;4.608;2023-03-12T07:59:19;1.92;;;1.00;;
22415;SDS011;12204;50.600;4.608;2023-03-12T08:04:25;2.00;;;0.80;;
22415;SDS011;12204;50.600;4.608;2023-03-12T08:09:29;2.13;;;0.80;;
22415;SDS011;12204;50.600;4.608;2023-03-12T08:14:32;3.42;;;0.95;;
22415;SDS011;12204;50.600;4.608;2023-03-12T08:19:38;2.75;;;0.90;;
22415;SDS011;12204;50.600;4.608;2023-03-12T08:24:42;3.63;;;1.15;;
22415;SDS011;12204;50.600;4.608;2023-03-12T08:29:46;3.95;;;1.10;;
22415;SDS011;12204;50.600;4.608;2023-03-12T08:34:51;3.58;;;0.95;;
22415;SDS011;12204;50.600;4.608;2023-03-12T08:39:54;2.80;;;0.90;;
22415;SDS011;12204;50.600;4.608;2023-03-12T08:44:58;5.13;;;1.17;;
22415;SDS011;12204;50.600;4.608;2023-03-12T08:50:03;4.25;;;1.20;;
22415;SDS011;12204;50.600;4.608;2023-03-12T08:55:08;3.67;;;0.98;;
22415;SDS011;12204;50.600;4.608;2023-03-12T09:00:13;3.28;;;1.00;;
22415;SDS011;12204;50.600;4.608;2023-03-12T09:05:19;4.38;;;1.10;;
22415;SDS011;12204;50.600;4.608;2023-03-12T09:10:23;3.40;;;1.10;;
22415;SDS011;12204;50.600;4.608;2023-03-12T09:15:31;4.05;;;1.20;;
22415;SDS011;12204;50.600;4.608;2023-03-12T09:20:36;4.97;;;1.23;;
22415;SDS011;12204;50.600;4.608;2023-03-12T09:25:43;4.45;;;1.25;;
22415;SDS011;12204;50.600;4.608;2023-03-12T09:30:47;5.13;;;1.23;;
22415;SDS011;12204;50.600;4.608;2023-03-12T09:35:56;5.32;;;1.20;;
22415;SDS011;12204;50.600;4.608;2023-03-12T09:41:00;4.72;;;1.17;;
22415;SDS011;12204;50.600;4.608;2023-03-12T09:46:08;5.10;;;1.30;;
22415;SDS011;12204;50.600;4.608;2023-03-12T09:51:19;4.85;;;1.30;;
22415;SDS011;12204;50.600;4.608;2023-03-12T09:56:31;5.03;;;1.30;;
22415;SDS011;12204;50.600;4.608;2023-03-12T10:01:37;6.15;;;1.40;;
22415;SDS011;12204;50.600;4.608;2023-03-12T10:06:49;4.22;;;1.30;;
22415;SDS011;12204;50.600;4.608;2023-03-12T10:12:01;5.30;;;1.35;;
22415;SDS011;12204;50.600;4.608;2023-03-12T10:17:20;6.47;;;1.40;;
22415;SDS011;12204;50.600;4.608;2023-03-12T10:22:48;7.25;;;1.40;;
22415;SDS011;12204;50.600;4.608;2023-03-12T10:27:58;6.63;;;1.70;;
22415;SDS011;12204;50.600;4.608;2023-03-12T10:33:16;5.60;;;1.50;;
22415;SDS011;12204;50.600;4.608;2023-03-12T10:38:24;6.38;;;1.60;;
22415;SDS011;12204;50.600;4.608;2023-03-12T10:43:32;5.25;;;1.30;;
22415;SDS011;12204;50.600;4.608;2023-03-12T10:48:37;5.32;;;1.33;;
22415;SDS011;12204;50.600;4.608;2023-03-12T10:53:42;5.93;;;1.58;;
22415;SDS011;12204;50.600;4.608;2023-03-12T10:58:49;6.15;;;1.55;;
22415;SDS011;12204;50.600;4.608;2023-03-12T11:04:06;6.50;;;1.42;;
22415;SDS011;12204;50.600;4.608;2023-03-12T11:09:19;6.20;;;1.52;;
22415;SDS011;12204;50.600;4.608;2023-03-12T11:14:23;6.88;;;1.58;;
22415;SDS011;12204;50.600;4.608;2023-03-12T11:19:30;6.03;;;1.30;;
22415;SDS011;12204;50.600;4.608;2023-03-12T11:24:37;4.63;;;1.52;;
22415;SDS011;12204;50.600;4.608;2023-03-12T11:29:58;6.63;;;1.55;;
22415;SDS011;12204;50.600;4.608;2023-03-12T11:35:08;6.88;;;1.60;;
22415;SDS011;12204;50.600;4.608;2023-03-12T11:40:20;7.47;;;1.55;;
22415;SDS011;12204;50.600;4.608;2023-03-12T11:45:45;6.30;;;1.50;;
22415;SDS011;12204;50.600;4.608;2023-03-12T11:51:16;8.80;;;1.80;;
22415;SDS011;12204;50.600;4.608;2023-03-12T11:56:34;5.63;;;1.45;;
22415;SDS011;12204;50.600;4.608;2023-03-12T12:01:48;7.18;;;1.80;;
22415;SDS011;12204;50.600;4.608;2023-03-12T12:07:07;7.68;;;1.80;;
22415;SDS011;12204;50.600;4.608;2023-03-12T12:12:39;7.72;;;1.75;;
22415;SDS011;12204;50.600;4.608;2023-03-12T12:17:58;7.40;;;1.70;;
22415;SDS011;12204;50.600;4.608;2023-03-12T12:23:21;8.40;;;1.52;;
22415;SDS011;12204;50.600;4.608;2023-03-12T12:28:51;9.73;;;1.83;;
22415;SDS011;12204;50.600;4.608;2023-03-12T12:40:09;7.90;;;1.75;;
22415;SDS011;12204;50.600;4.608;2023-03-12T12:45:23;10.18;;;1.83;;
22415;SDS011;12204;50.600;4.608;2023-03-12T12:50:32;8.25;;;1.90;;
22415;SDS011;12204;50.600;4.608;2023-03-12T12:55:42;8.57;;;1.90;;
22415;SDS011;12204;50.600;4.608;2023-03-12T13:00:59;8.53;;;2.10;;
22415;SDS011;12204;50.600;4.608;2023-03-12T13:06:04;9.32;;;2.10;;
22415;SDS011;12204;50.600;4.608;2023-03-12T13:11:22;8.43;;;1.80;;
22415;SDS011;12204;50.600;4.608;2023-03-12T13:16:35;10.93;;;1.98;;
22415;SDS011;12204;50.600;4.608;2023-03-12T13:21:44;11.80;;;2.08;;
22415;SDS011;12204;50.600;4.608;2023-03-12T13:27:07;9.27;;;1.83;;
22415;SDS011;12204;50.600;4.608;2023-03-12T13:32:50;9.80;;;2.00;;
22415;SDS011;12204;50.600;4.608;2023-03-12T13:38:17;10.45;;;1.92;;
22415;SDS011;12204;50.600;4.608;2023-03-12T13:43:46;8.55;;;1.90;;
22415;SDS011;12204;50.600;4.608;2023-03-12T13:48:58;8.67;;;1.93;;
22415;SDS011;12204;50.600;4.608;2023-03-12T13:54:12;9.05;;;2.13;;
22415;SDS011;12204;50.600;4.608;2023-03-12T13:59:20;11.00;;;2.13;;
22415;SDS011;12204;50.600;4.608;2023-03-12T14:04:29;9.05;;;2.00;;
22415;SDS011;12204;50.600;4.608;2023-03-12T14:09:41;7.90;;;1.90;;
22415;SDS011;12204;50.600;4.608;2023-03-12T14:15:14;8.82;;;2.10;;
22415;SDS011;12204;50.600;4.608;2023-03-12T14:20:27;10.93;;;1.93;;
22415;SDS011;12204;50.600;4.608;2023-03-12T14:25:33;9.85;;;2.15;;
22415;SDS011;12204;50.600;4.608;2023-03-12T14:30:41;10.38;;;2.13;;
22415;SDS011;12204;50.600;4.608;2023-03-12T14:35:54;8.75;;;1.90;;
22415;SDS011;12204;50.600;4.608;2023-03-12T14:41:06;8.68;;;1.90;;
22415;SDS011;12204;50.600;4.608;2023-03-12T14:46:16;9.23;;;2.00;;
22415;SDS011;12204;50.600;4.608;2023-03-12T14:51:23;9.65;;;2.00;;
22415;SDS011;12204;50.600;4.608;2023-03-12T14:56:30;11.67;;;2.27;;
22415;SDS011;12204;50.600;4.608;2023-03-12T15:01:36;10.57;;;2.13;;
22415;SDS011;12204;50.600;4.608;2023-03-12T15:06:43;10.07;;;2.10;;
22415;SDS011;12204;50.600;4.608;2023-03-12T15:11:50;11.48;;;2.10;;
22415;SDS011;12204;50.600;4.608;2023-03-12T15:16:56;9.52;;;2.25;;
22415;SDS011;12204;50.600;4.608;2023-03-12T15:22:02;7.93;;;2.08;;
22415;SDS011;12204;50.600;4.608;2023-03-12T15:27:20;9.57;;;2.00;;
22415;SDS011;12204;50.600;4.608;2023-03-12T15:32:34;9.60;;;2.10;;
22415;SDS011;12204;50.600;4.608;2023-03-12T15:37:39;7.50;;;1.80;;
22415;SDS011;12204;50.600;4.608;2023-03-12T15:42:43;10.20;;;1.95;;
22415;SDS011;12204;50.600;4.608;2023-03-12T15:47:49;8.57;;;1.75;;
22415;SDS011;12204;50.600;4.608;2023-03-12T15:53:00;8.30;;;1.92;;
22415;SDS011;12204;50.600;4.608;2023-03-12T15:58:22;8.60;;;1.90;;
22415;SDS011;12204;50.600;4.608;2023-03-12T16:03:28;7.68;;;1.88;;
22415;SDS011;12204;50.600;4.608;2023-03-12T16:08:35;8.10;;;1.70;;
22415;SDS011;12204;50.600;4.608;2023-03-12T16:13:45;9.18;;;1.80;;
22415;SDS011;12204;50.600;4.608;2023-03-12T16:18:51;9.07;;;2.00;;
22415;SDS011;12204;50.600;4.608;2023-03-12T16:23:56;7.70;;;1.58;;
22415;SDS011;12204;50.600;4.608;2023-03-12T16:28:59;6.53;;;1.55;;
22415;SDS011;12204;50.600;4.608;2023-03-12T16:34:03;9.05;;;1.83;;
22415;SDS011;12204;50.600;4.608;2023-03-12T16:39:08;8.68;;;1.77;;
22415;SDS011;12204;50.600;4.608;2023-03-12T16:44:12;9.90;;;1.80;;
22415;SDS011;12204;50.600;4.608;2023-03-12T16:49:20;7.18;;;1.80;;
22415;SDS011;12204;50.600;4.608;2023-03-12T16:54:25;6.80;;;1.48;;
22415;SDS011;12204;50.600;4.608;2023-03-12T16:59:29;7.80;;;1.80;;
22415;SDS011;12204;50.600;4.608;2023-03-12T17:04:38;8.80;;;1.80;;
22415;SDS011;12204;50.600;4.608;2023-03-12T17:09:43;8.38;;;2.08;;
22415;SDS011;12204;50.600;4.608;2023-03-12T17:14:46;9.98;;;1.90;;
22415;SDS011;12204;50.600;4.608;2023-03-12T17:19:52;7.85;;;1.90;;
22415;SDS011;12204;50.600;4.608;2023-03-12T17:24:57;8.95;;;1.80;;
22415;SDS011;12204;50.600;4.608;2023-03-12T17:30:00;7.20;;;1.88;;
22415;SDS011;12204;50.600;4.608;2023-03-12T17:35:04;8.35;;;1.80;;
22415;SDS011;12204;50.600;4.608;2023-03-12T17:40:11;8.75;;;1.73;;
22415;SDS011;12204;50.600;4.608;2023-03-12T17:45:16;8.32;;;1.70;;
22415;SDS011;12204;50.600;4.608;2023-03-12T17:50:20;7.72;;;1.80;;
22415;SDS011;12204;50.600;4.608;2023-03-12T17:55:25;7.32;;;1.90;;
22415;SDS011;12204;50.600;4.608;2023-03-12T18:00:28;6.97;;;1.90;;
22415;SDS011;12204;50.600;4.608;2023-03-12T18:05:32;6.40;;;1.60;;
22415;SDS011;12204;50.600;4.608;2023-03-12T18:10:41;6.90;;;1.52;;
22415;SDS011;12204;50.600;4.608;2023-03-12T18:15:48;7.43;;;1.60;;
22415;SDS011;12204;50.600;4.608;2023-03-12T18:20:54;6.35;;;1.60;;
22415;SDS011;12204;50.600;4.608;2023-03-12T18:26:01;6.95;;;1.67;;
22415;SDS011;12204;50.600;4.608;2023-03-12T18:31:05;7.55;;;1.65;;
22415;SDS011;12204;50.600;4.608;2023-03-12T18:36:10;7.03;;;1.70;;
22415;SDS011;12204;50.600;4.608;2023-03-12T18:41:14;5.82;;;1.60;;
22415;SDS011;12204;50.600;4.608;2023-03-12T18:46:18;5.18;;;1.60;;
22415;SDS011;12204;50.600;4.608;2023-03-12T18:51:24;5.53;;;1.55;;
22415;SDS011;12204;50.600;4.608;2023-03-12T18:56:28;6.60;;;1.60;;
22415;SDS011;12204;50.600;4.608;2023-03-12T19:01:32;6.03;;;1.63;;
22415;SDS011;12204;50.600;4.608;2023-03-12T19:06:35;6.13;;;1.65;;
22415;SDS011;12204;50.600;4.608;2023-03-12T19:11:53;7.03;;;1.60;;
22415;SDS011;12204;50.600;4.608;2023-03-12T19:16:56;7.15;;;1.60;;
22415;SDS011;12204;50.600;4.608;2023-03-12T19:22:00;7.05;;;1.85;;
22415;SDS011;12204;50.600;4.608;2023-03-12T19:27:06;6.40;;;1.92;;
22415;SDS011;12204;50.600;4.608;2023-03-12T19:32:09;5.43;;;1.55;;
22415;SDS011;12204;50.600;4.608;2023-03-12T19:37:13;5.97;;;1.60;;
22415;SDS011;12204;50.600;4.608;2023-03-12T19:42:18;5.57;;;1.60;;
22415;SDS011;12204;50.600;4.608;2023-03-12T19:47:22;5.93;;;1.60;;
22415;SDS011;12204;50.600;4.608;2023-03-12T19:52:27;5.88;;;1.40;;
22415;SDS011;12204;50.600;4.608;2023-03-12T19:57:34;6.68;;;1.70;;
22415;SDS011;12204;50.600;4.608;2023-03-12T20:02:41;6.65;;;1.63;;
22415;SDS011;12204;50.600;4.608;2023-03-12T20:07:46;5.25;;;1.63;;
22415;SDS011;12204;50.600;4.608;2023-03-12T20:12:51;6.80;;;1.70;;
22415;SDS011;12204;50.600;4.608;2023-03-12T20:17:55;5.72;;;1.67;;
22415;SDS011;12204;50.600;4.608;2023-03-12T20:22:59;6.10;;;1.60;;
22415;SDS011;12204;50.600;4.608;2023-03-12T20:28:05;5.55;;;1.67;;
22415;SDS011;12204;50.600;4.608;2023-03-12T20:33:11;6.60;;;1.90;;
22415;SDS011;12204;50.600;4.608;2023-03-12T20:38:25;5.57;;;1.70;;
22415;SDS011;12204;50.600;4.608;2023-03-12T20:43:30;5.57;;;1.70;;
22415;SDS011;12204;50.600;4.608;2023-03-12T20:48:33;7.40;;;1.80;;
22415;SDS011;12204;50.600;4.608;2023-03-12T20:53:37;5.30;;;1.63;;
22415;SDS011;12204;50.600;4.608;2023-03-12T20:58:42;4.90;;;1.70;;
22415;SDS011;12204;50.600;4.608;2023-03-12T21:03:45;7.05;;;1.70;;
22415;SDS011;12204;50.600;4.608;2023-03-12T21:08:49;7.43;;;1.80;;
22415;SDS011;12204;50.600;4.608;2023-03-12T21:13:53;6.57;;;1.90;;
22415;SDS011;12204;50.600;4.608;2023-03-12T21:18:57;6.55;;;1.50;;
22415;SDS011;12204;50.600;4.608;2023-03-12T21:24:00;5.78;;;1.58;;
22415;SDS011;12204;50.600;4.608;2023-03-12T21:29:06;5.80;;;1.80;;
22415;SDS011;12204;50.600;4.608;2023-03-12T21:34:09;5.85;;;1.90;;
22415;SDS011;12204;50.600;4.608;2023-03-12T21:39:13;4.85;;;1.70;;
22415;SDS011;12204;50.600;4.608;2023-03-12T21:44:18;5.78;;;1.80;;
22415;SDS011;12204;50.600;4.608;2023-03-12T21:49:22;5.68;;;1.73;;
22415;SDS011;12204;50.600;4.608;2023-03-12T21:54:29;5.10;;;1.75;;
22415;SDS011;12204;50.600;4.608;2023-03-12T22:04:38;6.88;;;1.88;;
22415;SDS011;12204;50.600;4.608;2023-03-12T22:09:42;5.95;;;2.15;;
22415;SDS011;12204;50.600;4.608;2023-03-12T22:14:47;5.32;;;1.85;;
22415;SDS011;12204;50.600;4.608;2023-03-12T22:19:50;5.03;;;1.75;;
22415;SDS011;12204;50.600;4.608;2023-03-12T22:24:54;6.40;;;1.83;;
22415;SDS011;12204;50.600;4.608;2023-03-12T22:29:59;6.45;;;1.80;;
22415;SDS011;12204;50.600;4.608;2023-03-12T22:35:12;5.68;;;1.77;;
22415;SDS011;12204;50.600;4.608;2023-03-12T22:40:16;6.10;;;1.90;;
22415;SDS011;12204;50.600;4.608;2023-03-12T22:45:21;6.18;;;1.75;;
22415;SDS011;12204;50.600;4.608;2023-03-12T22:50:25;5.70;;;1.60;;
22415;SDS011;12204;50.600;4.608;2023-03-12T22:55:28;6.18;;;1.60;;
22415;SDS011;12204;50.600;4.608;2023-03-12T23:00:33;5.28;;;2.00;;
22415;SDS011;12204;50.600;4.608;2023-03-12T23:05:37;4.72;;;1.63;;
22415;SDS011;12204;50.600;4.608;2023-03-12T23:10:48;6.22;;;1.70;;
22415;SDS011;12204;50.600;4.608;2023-03-12T23:16:03;5.93;;;1.83;;
22415;SDS011;12204;50.600;4.608;2023-03-12T23:21:11;5.78;;;1.52;;
22415;SDS011;12204;50.600;4.608;2023-03-12T23:26:18;5.35;;;1.80;;
22415;SDS011;12204;50.600;4.608;2023-03-12T23:31:28;6.18;;;1.92;;
22415;SDS011;12204;50.600;4.608;2023-03-12T23:36:32;6.43;;;1.80;;
22415;SDS011;12204;50.600;4.608;2023-03-12T23:41:35;5.03;;;1.60;;
22415;SDS011;12204;50.600;4.608;2023-03-12T23:46:40;5.07;;;1.65;;
22415;SDS011;12204;50.600;4.608;2023-03-12T23:51:45;5.13;;;1.42;;
22415;SDS011;12204;50.600;4.608;2023-03-12T23:56:48;5.88;;;1.80;;
